Latest Weather Observations for Charlton

IDV60801

Issued at 6:31 pm EDT Friday 27 February 2015 (issued every 30 minutes, with the page automatically refreshed every 10 minutes)

About weather observations | Map of weather stations | Latest weather observations for VIC | Other Formats
Station Details ID: 080128 Name: CHARLTON Lat: -36.28 Lon: 143.33 Height: 131.7 m
Data from the previous 72 hours. | See also: Recent months at Charlton
Date/Time
EDT
Temp
°C
App
Temp
°C
Dew
Point
Rel
Hum
%
Delta-T
°C
Wind Press
QNH
hPa
Press
MSL
hPa
Rain
since 9 am
mm
Dir
 
Spd
km/h
Gust
km/h
Spd
kts
Gust
kts
27/06:30pm 30.0 27.1 6.6 23 12.6 SSW 11 19 6 10 1007.0 1006.4 0.0
27/06:00pm 31.4 28.5 6.5 21 13.5 SSW 11 17 6 9 1007.0 1006.4 0.0
27/05:30pm 31.6 28.7 6.6 21 13.6 SW 11 28 6 15 1006.8 1006.2 0.0
27/05:00pm 31.3 28.4 6.4 21 13.5 SSW 11 17 6 9 1007.1 1006.5 0.0
27/04:30pm 31.0 27.9 5.4 20 13.6 W 11 20 6 11 1007.3 1006.7 0.0
27/04:00pm 31.5 28.1 5.8 20 13.8 SW 13 20 7 11 1007.7 1007.1 0.0
27/03:30pm 30.8 27.9 6.6 22 13.1 SW 11 20 6 11 1008.0 1007.4 0.0
27/03:00pm 29.9 27.2 7.2 24 12.3 S 11 19 6 10 1008.4 1007.8 0.0
27/02:30pm 29.9 27.2 7.2 24 12.3 SW 11 19 6 10 1008.9 1008.4 0.0
27/02:00pm 29.5 27.8 8.5 27 11.6 WSW 7 17 4 9 1009.2 1008.7 0.0
27/01:30pm 28.9 27.0 9.1 29 11.0 WNW 9 20 5 11 1009.6 1009.1 0.0
27/01:00pm 27.6 25.7 9.0 31 10.3 SW 9 17 5 9 1010.0 1009.5 0.0
27/12:30pm 26.9 25.1 9.3 33 9.7 WSW 9 15 5 8 1010.3 1009.8 0.0
27/12:00pm 25.7 24.5 10.3 38 8.6 W 7 13 4 7 1010.6 1010.0 0.0
27/11:30am 24.8 23.9 11.4 43 7.6 W 7 11 4 6 1011.2 1010.6 0.0
27/11:00am 23.6 22.3 11.3 46 6.9 SW 9 13 5 7 1011.5 1010.9 0.0
27/10:30am 23.3 22.0 11.4 47 6.7 SSE 9 13 5 7 1011.3 1010.7 0.0
27/10:00am 22.1 20.3 10.9 49 6.2 ESE 11 17 6 9 1011.5 1010.9 0.0
27/09:30am 20.5 18.6 11.7 57 4.9 SE 13 19 7 10 1011.5 1010.9 0.0
27/09:00am 18.9 17.4 11.9 64 3.9 SSE 11 15 6 8 1011.6 1011.0 0.0
27/08:30am 16.9 16.3 12.4 75 2.5 S 7 11 4 6 1011.3 1010.7 0.0
27/08:00am 15.3 14.7 12.2 82 1.7 SSE 7 9 4 5 1010.8 1010.2 0.0
27/07:30am 13.3 13.0 11.4 88 1.0 S 4 6 2 3 1010.3 1009.8 0.0
27/07:00am 13.5 12.7 11.0 85 1.3 SSE 6 7 3 4 1010.1 1009.6 0.0
27/06:30am 14.1 13.2 11.3 83 1.5 SE 7 11 4 6 1009.7 1009.2 0.0
27/06:00am 14.6 13.4 11.6 82 1.6 SSE 9 11 5 6 1009.7 1009.2 0.0
27/05:30am 15.0 13.9 11.8 81 1.7 SSE 9 11 5 6 1010.0 1009.5 0.0
27/05:00am 15.4 13.9 11.8 79 2.0 SSE 11 15 6 8 1009.6 1009.1 0.0
27/04:30am 15.9 14.4 11.9 77 2.2 SSE 11 15 6 8 1009.9 1009.4 0.0
27/04:00am 16.3 15.2 11.9 75 2.4 SSE 9 15 5 8 1010.0 1009.5 0.0
27/03:30am 16.5 15.6 11.4 72 2.8 S 7 11 4 6 1010.1 1009.6 0.0
27/03:00am 17.1 15.9 11.6 70 3.0 SSW 9 13 5 7 1010.5 1009.9 0.0
27/02:30am 17.0 15.9 10.6 66 3.4 S 7 11 4 6 1010.5 1009.9 0.0
27/02:00am 18.0 17.0 10.9 63 3.9 SE 7 9 4 5 1010.1 1009.6 0.0
27/01:30am 19.0 16.9 11.3 61 4.2 SSE 13 15 7 8 1010.2 1009.7 0.0
27/01:00am 19.6 18.3 11.1 58 4.7 SSE 9 17 5 9 1010.5 1009.9 0.0
27/12:30am 20.1 18.7 10.8 55 5.1 SSE 9 15 5 8 1010.2 1009.7 0.0
27/12:00am 21.0 18.8 10.8 52 5.6 SSE 13 22 7 12 1009.9 1009.4 0.0
 
Date/Time
EDT
Temp
°C
App
Temp
°C
Dew
Point
Rel
Hum
%
Delta-T
°C
Wind Press
QNH
hPa
Press
MSL
hPa
Rain
since 9 am
mm
Dir
 
Spd
km/h
Gust
km/h
Spd
kts
Gust
kts
26/11:30pm 21.8 19.2 10.6 49 6.2 SSE 15 24 8 13 1009.9 1009.4 0.0
26/11:00pm 22.6 19.6 10.7 47 6.6 SSE 17 24 9 13 1010.0 1009.5 0.0
26/10:30pm 23.1 21.3 9.5 42 7.4 SSW 9 11 5 6 1009.7 1009.2 0.0
26/10:00pm 23.9 21.8 9.9 41 7.7 SW 11 17 6 9 1009.6 1009.1 0.0
26/09:30pm 24.6 22.5 9.7 39 8.2 SW 11 17 6 9 1009.4 1008.9 0.0
26/09:00pm 25.4 23.3 9.7 37 8.7 WSW 11 17 6 9 1008.9 1008.4 0.0
26/08:30pm 26.2 24.2 10.0 36 9.0 WSW 11 19 6 10 1008.6 1008.0 0.0
26/08:00pm 27.3 24.6 10.5 35 9.5 WSW 15 20 8 11 1008.2 1007.6 0.0
26/07:30pm 28.2 25.3 10.9 34 9.9 WSW 17 26 9 14 1007.9 1007.3 0.0
26/07:00pm 29.3 26.6 10.4 31 10.8 WSW 15 33 8 18 1007.7 1007.1 0.0
26/06:30pm 29.4 26.8 11.9 34 10.2 SW 17 28 9 15 1007.6 1007.0 0.0
26/06:00pm 29.3 26.4 10.9 32 10.6 SW 17 24 9 13 1007.7 1007.1 0.0
26/05:30pm 29.4 27.0 10.0 30 11.0 SW 13 24 7 13 1007.7 1007.1 0.0
26/05:00pm 30.2 27.6 10.7 30 11.2 SW 15 30 8 16 1007.8 1007.2 0.0
26/04:30pm 31.2 28.7 11.1 29 11.7 WSW 15 30 8 16 1008.0 1007.4 0.0
26/04:00pm 30.6 27.2 10.5 29 11.6 SW 19 32 10 17 1008.2 1007.6 0.0
26/03:30pm 29.8 26.4 9.3 28 11.5 SSW 17 30 9 16 1008.5 1007.9 0.0
26/03:00pm 30.7 27.9 10.1 28 11.8 SW 15 30 8 16 1008.8 1008.3 0.0
26/02:30pm 30.9 28.1 8.6 25 12.4 SW 13 26 7 14 1009.1 1008.6 0.0
26/02:00pm 29.6 27.5 8.1 26 11.8 SW 9 15 5 8 1009.3 1008.8 0.0
26/01:30pm 28.7 26.8 8.9 29 11.0 SSW 9 15 5 8 1009.7 1009.2 0.0
26/01:00pm 28.7 26.9 9.4 30 10.8 SW 9 20 5 11 1010.1 1009.6 0.0
26/12:30pm 28.1 26.0 8.4 29 10.8 SW 9 19 5 10 1010.5 1009.9 0.0
26/12:00pm 26.7 23.7 7.7 30 10.2 SSW 13 19 7 10 1010.6 1010.0 0.0
26/11:30am 26.1 23.1 7.7 31 9.9 SSE 13 22 7 12 1010.9 1010.3 0.0
26/11:00am 25.0 21.5 7.2 32 9.4 SE 15 24 8 13 1011.1 1010.5 0.0
26/10:30am 23.1 20.2 8.0 38 8.0 SE 13 20 7 11 1010.8 1010.2 0.0
26/10:00am 21.5 19.0 10.9 51 5.9 SSE 15 20 8 11 1011.0 1010.4 0.0
26/09:30am 19.7 18.5 12.9 65 3.9 SSE 11 15 6 8 1010.7 1010.1 0.0
26/09:00am 18.3 18.2 13.2 72 2.9 S 6 7 3 4 1010.7 1010.1 0.0
26/08:30am 17.9 17.5 13.0 73 2.8 S 7 13 4 7 1010.3 1009.8 0.0
26/08:00am 18.0 18.7 12.2 69 3.2 CALM 0 0 0 0 1009.9 1009.4 0.0
26/07:30am 17.8 17.3 12.0 69 3.2 SSW 6 9 3 5 1010.2 1009.7 0.0
26/07:00am 17.6 17.1 12.1 70 3.1 SW 6 11 3 6 1009.7 1009.2 0.0
26/06:30am 17.5 16.7 11.8 69 3.1 S 7 13 4 7 1008.7 1008.1 0.0
26/06:00am 17.5 16.8 12.0 70 3.0 SSW 7 13 4 7 1009.1 1008.6 0.0
26/05:30am 17.3 16.7 11.8 70 3.0 SW 6 9 3 5 1008.6 1008.0 0.0
26/05:00am 17.5 16.6 11.5 68 3.3 SSW 7 13 4 7 1008.8 1008.3 0.0
26/04:30am 17.6 16.8 11.2 66 3.5 SW 6 7 3 4 1008.8 1008.3 0.0
26/04:00am 18.1 17.2 10.7 62 4.0 SW 6 9 3 5 1009.0 1008.5 0.0
26/03:30am 18.6 17.6 10.9 61 4.2 SSW 7 11 4 6 1009.0 1008.5 0.0
26/03:00am 18.4 17.3 10.5 60 4.3 SW 7 11 4 6 1009.3 1008.8 0.0
26/02:30am 18.3 17.3 10.2 59 4.3 SSW 6 7 3 4 1009.4 1008.9 0.0
26/02:00am 18.4 17.1 10.0 58 4.5 SSW 7 9 4 5 1009.7 1009.2 0.0
26/01:30am 18.0 16.5 9.1 56 4.7 SSW 7 11 4 6 1009.8 1009.3 0.0
26/01:00am 18.4 17.1 9.2 55 4.9 SSW 6 9 3 5 1010.1 1009.6 0.0
26/12:30am 18.5 17.5 8.7 53 5.1 SW 4 7 2 4 1010.0 1009.5 0.0
26/12:00am 19.5 18.8 8.5 49 5.8 SW 2 6 1 3 1010.1 1009.6 0.0
 
Date/Time
EDT
Temp
°C
App
Temp
°C
Dew
Point
Rel
Hum
%
Delta-T
°C
Wind Press
QNH
hPa
Press
MSL
hPa
Rain
since 9 am
mm
Dir
 
Spd
km/h
Gust
km/h
Spd
kts
Gust
kts
25/11:30pm 20.6 18.9 8.3 45 6.5 SW 7 9 4 5 1010.3 1009.8 0.0
25/11:00pm 21.7 19.7 8.6 43 7.0 SSW 9 11 5 6 1010.2 1009.7 0.0
25/10:30pm 22.2 20.0 8.0 40 7.5 SW 9 15 5 8 1010.3 1009.8 0.0
25/10:00pm 22.6 20.3 7.6 38 7.9 SW 9 15 5 8 1010.2 1009.7 0.0
25/09:30pm 23.4 20.6 7.1 35 8.5 SW 11 19 6 10 1010.2 1009.7 0.0
25/09:00pm 23.9 21.4 6.7 33 9.0 SW 9 15 5 8 1009.9 1009.4 0.0
25/08:30pm 24.6 21.7 6.4 31 9.5 WSW 11 17 6 9 1009.7 1009.2 0.0
25/08:00pm 25.7 22.4 6.3 29 10.1 WSW 13 22 7 12 1009.6 1009.1 0.0
25/07:30pm 26.9 23.7 6.9 28 10.6 WSW 13 20 7 11 1009.3 1008.8 0.0
25/07:00pm 28.6 26.2 7.2 26 11.5 WSW 9 19 5 10 1009.2 1008.7 0.0
25/06:30pm 28.3 25.1 7.0 26 11.4 WSW 13 22 7 12 1009.4 1008.9 0.0
25/06:00pm 28.4 24.9 7.1 26 11.5 SW 15 22 8 12 1009.6 1009.1 0.0
25/05:30pm 29.2 26.3 8.3 27 11.5 WSW 13 22 7 12 1009.7 1009.2 0.0
25/05:00pm 29.4 26.6 8.5 27 11.6 SW 13 22 7 12 1009.8 1009.3 0.0
25/04:30pm 29.9 27.5 7.2 24 12.3 W 9 17 5 9 1010.1 1009.6 0.0
25/04:00pm 29.5 26.7 6.8 24 12.2 WSW 11 17 6 9 1010.6 1010.0 0.0
25/03:30pm 28.5 25.8 5.4 23 12.1 WSW 9 17 5 9 1010.9 1010.3 0.0
25/03:00pm 28.4 26.0 7.1 26 11.5 SW 9 17 5 9 1011.4 1010.8 0.0
25/02:30pm 27.8 25.9 9.1 31 10.4 W 9 17 5 9 1011.8 1011.2 0.0
25/02:00pm 27.0 24.9 8.4 31 10.1 SW 9 17 5 9 1012.3 1011.7 0.0
25/01:30pm 26.5 24.2 8.9 33 9.7 SW 11 24 6 13 1012.9 1012.3 0.0
25/01:00pm 24.8 22.9 9.1 37 8.6 SSE 9 15 5 8 1013.5 1012.9 0.0
25/12:30pm 24.3 23.2 9.8 40 8.0 SW 6 9 3 5 1013.9 1013.3 0.0
25/12:00pm 23.3 22.1 10.4 44 7.1 WSW 7 11 4 6 1014.2 1013.6 0.0
25/11:30am 22.3 21.0 11.1 49 6.2 S 9 17 5 9 1014.6 1014.0 0.0
25/11:00am 21.7 20.7 11.1 51 5.9 SE 7 11 4 6 1014.6 1014.0 0.0
25/10:30am 21.3 20.5 11.6 54 5.4 SE 7 11 4 6 1014.7 1014.1 0.0
25/10:00am 19.5 17.5 11.5 60 4.4 SE 13 19 7 10 1014.7 1014.1 0.0
25/09:30am 18.5 16.7 12.0 66 3.6 S 13 20 7 11 1014.9 1014.3 0.0
25/09:00am 16.3 14.5 10.8 70 2.9 SSW 11 15 6 8 1015.2 1014.6 0.0
25/08:30am 14.3 12.6 9.9 75 2.3 SSW 9 15 5 8 1015.2 1014.6 0.0
25/08:00am 12.4 11.0 9.4 82 1.5 SW 7 11 4 6 1015.1 1014.5 0.0
25/07:30am 11.0 9.4 8.8 86 1.1 SW 7 11 4 6 1014.7 1014.1 0.0
25/07:00am 10.5 8.9 8.1 85 1.2 SW 6 11 3 6 1014.8 1014.2 0.0
25/06:30am 10.7 8.9 7.8 82 1.4 WSW 7 9 4 5 1014.7 1014.1 0.0
25/06:00am 11.3 9.7 8.2 81 1.5 SW 6 9 3 5 1014.6 1014.0 0.0
25/05:30am 12.2 10.7 9.2 82 1.5 SSW 7 11 4 6 1014.6 1014.0 0.0
25/05:00am 12.1 10.5 8.8 80 1.7 SSW 7 11 4 6 1014.5 1013.9 0.0
25/04:30am 12.0 10.5 8.3 78 1.8 SW 6 9 3 5 1014.7 1014.1 0.0
25/04:00am 12.8 11.2 8.9 77 2.0 S 7 11 4 6 1015.0 1014.4 0.0
25/03:30am 13.2 10.4 8.7 74 2.3 S 13 19 7 10 1015.3 1014.7 0.0
25/03:00am 13.1 10.7 8.6 74 2.3 SSW 11 20 6 11 1015.7 1015.2 0.0
25/02:30am 13.3 10.8 8.4 72 2.5 S 11 20 6 11 1015.9 1015.4 0.0
25/02:00am 13.3 10.8 8.0 70 2.6 SSW 11 17 6 9 1016.3 1015.8 0.0
25/01:30am 13.7 10.7 7.7 67 3.0 S 13 19 7 10 1016.6 1016.1 0.0
25/01:00am 14.0 11.0 7.5 65 3.2 S 13 20 7 11 1016.6 1016.1 0.0
25/12:30am 14.2 11.0 7.0 62 3.5 S 13 19 7 10 1016.6 1016.1 0.0
25/12:00am 14.8 11.2 6.9 59 3.9 S 15 24 8 13 1017.0 1016.5 0.0
 
Date/Time
EDT
Temp
°C
App
Temp
°C
Dew
Point
Rel
Hum
%
Delta-T
°C
Wind Press
QNH
hPa
Press
MSL
hPa
Rain
since 9 am
mm
Dir
 
Spd
km/h
Gust
km/h
Spd
kts
Gust
kts
24/11:30pm 15.3 10.0 6.6 56 4.3 SSE 24 35 13 19 1017.5 1017.0 0.0
24/11:00pm 16.0 9.9 6.7 54 4.6 SSE 28 41 15 22 1017.8 1017.3 0.0
24/10:30pm 16.5 11.9 5.8 49 5.2 S 19 30 10 16 1017.8 1017.3 0.0
24/10:00pm 17.2 13.1 6.1 48 5.4 S 17 26 9 14 1017.8 1017.3 0.0
24/09:30pm 17.9 13.1 5.8 45 5.9 S 20 28 11 15 1017.5 1017.0 0.0
24/09:00pm 18.7 14.6 6.2 44 6.2 S 17 28 9 15 1017.6 1017.1 0.0
24/08:30pm 19.4 14.9 6.2 42 6.6 SSE 19 26 10 14 1017.1 1016.6 0.0
24/08:00pm 20.1 14.6 6.1 40 7.0 SSE 24 35 13 19 1016.8 1016.3 0.0
24/07:30pm 21.8 17.1 6.1 36 8.0 S 20 35 11 19 1016.5 1016.0 0.0
24/07:00pm 23.1 17.8 5.1 31 9.0 S 22 43 12 23 1016.2 1015.7 0.0

Other Formats:

Comma delimited format used in spreadsheet applications
http://www.bom.gov.au/fwo/IDV60801/IDV60801.94839.axf

JavaScript Object Notation format (JSON) in row-major order
http://www.bom.gov.au/fwo/IDV60801/IDV60801.94839.json